createdAt,value
2022-10-31T00:00:32.993Z,34.09
2022-10-31T00:03:00.000Z,34.01
2022-10-31T00:05:27.121Z,34.61
2022-10-31T00:07:54.586Z,34.87
2022-10-31T00:10:21.325Z,34.68
2022-10-31T00:12:48.022Z,34.43
2022-10-31T00:15:14.838Z,34.98
2022-10-31T00:17:41.760Z,34.67
2022-10-31T00:20:09.177Z,34.83
2022-10-31T00:22:35.900Z,35.28
2022-10-31T00:25:02.718Z,34.54
2022-10-31T00:27:29.390Z,34.99
2022-10-31T00:29:56.438Z,34.91
2022-10-31T00:32:23.186Z,34.98
2022-10-31T00:34:49.981Z,35.38
2022-10-31T00:37:16.856Z,35.36
2022-10-31T00:39:46.216Z,35.15
2022-10-31T00:42:12.875Z,34.60
2022-10-31T00:44:42.440Z,34.89
2022-10-31T00:47:09.193Z,34.83
2022-10-31T00:49:36.097Z,35.19
2022-10-31T00:52:02.828Z,34.86
2022-10-31T00:54:31.857Z,35.52
2022-10-31T00:56:58.763Z,35.32
2022-10-31T00:59:25.696Z,35.64
2022-10-31T01:01:52.667Z,36.45
2022-10-31T01:04:19.685Z,36.99
2022-10-31T01:06:46.318Z,36.75
2022-10-31T01:09:13.254Z,36.98
2022-10-31T01:11:40.190Z,37.05
2022-10-31T01:14:10.057Z,36.96
2022-10-31T01:16:36.852Z,36.87
2022-10-31T01:19:04.063Z,36.92
2022-10-31T01:21:30.816Z,37.32
2022-10-31T01:23:59.690Z,37.32
2022-10-31T01:26:29.268Z,37.34
2022-10-31T01:28:59.121Z,37.82
2022-10-31T01:31:29.603Z,37.86
2022-10-31T01:33:57.531Z,37.95
2022-10-31T01:36:27.329Z,38.01
2022-10-31T01:38:56.830Z,38.26
2022-10-31T01:41:27.449Z,38.37
2022-10-31T01:43:57.361Z,37.99
2022-10-31T01:46:33.234Z,38.34
2022-10-31T01:49:04.582Z,38.37
2022-10-31T01:51:35.972Z,38.36
2022-10-31T01:54:07.541Z,38.70
2022-10-31T01:56:38.843Z,38.31
2022-10-31T01:59:10.067Z,38.43
2022-10-31T02:01:38.745Z,38.72
2022-10-31T02:04:07.851Z,38.54
2022-10-31T02:06:41.192Z,39.46
2022-10-31T02:09:08.078Z,39.58
2022-10-31T02:11:36.841Z,39.70
2022-10-31T02:14:04.474Z,39.09
2022-10-31T02:16:31.358Z,39.29
2022-10-31T02:18:58.481Z,39.49
2022-10-31T02:21:33.921Z,39.44
2022-10-31T02:24:21.881Z,39.51
2022-10-31T02:27:09.924Z,39.18
2022-10-31T02:30:06.356Z,39.54
2022-10-31T02:32:44.140Z,38.97
2022-10-31T02:35:37.270Z,39.36
2022-10-31T02:38:33.735Z,39.26
2022-10-31T02:41:46.070Z,39.45
2022-10-31T02:44:27.064Z,39.74
2022-10-31T02:47:07.822Z,39.77
2022-10-31T02:49:39.332Z,39.63
2022-10-31T02:52:38.668Z,40.11
2022-10-31T02:55:23.503Z,39.59
2022-10-31T02:58:03.442Z,40.19
2022-10-31T03:00:51.238Z,40.39
2022-10-31T03:03:48.188Z,39.87
2022-10-31T03:06:36.054Z,40.01
2022-10-31T03:09:25.454Z,40.04
2022-10-31T03:11:58.210Z,40.26
2022-10-31T03:14:40.132Z,39.80
2022-10-31T03:17:10.631Z,40.23
2022-10-31T03:19:41.277Z,40.02
2022-10-31T03:22:26.872Z,40.67
2022-10-31T03:24:56.801Z,40.39
2022-10-31T03:27:27.429Z,40.99
2022-10-31T03:29:58.585Z,40.30
2022-10-31T03:32:47.258Z,40.96
2022-10-31T03:35:17.228Z,40.73
2022-10-31T03:37:44.839Z,40.94
2022-10-31T03:40:17.515Z,40.93
2022-10-31T03:42:51.652Z,40.83
2022-10-31T03:45:26.992Z,41.24
2022-10-31T03:47:55.361Z,41.10
2022-10-31T03:50:24.898Z,40.95
2022-10-31T03:52:58.492Z,41.40
2022-10-31T03:55:35.394Z,41.24
2022-10-31T03:58:12.023Z,40.74
2022-10-31T04:00:46.927Z,41.08
2022-10-31T04:03:13.792Z,41.03
2022-10-31T04:05:46.422Z,41.23
2022-10-31T04:08:18.099Z,40.82
2022-10-31T04:10:49.154Z,41.19
2022-10-31T04:13:22.040Z,41.12
2022-10-31T04:15:57.650Z,41.68
2022-10-31T04:18:27.226Z,41.55
2022-10-31T04:21:02.693Z,41.93
2022-10-31T04:23:31.562Z,41.79
2022-10-31T04:25:59.520Z,41.42
2022-10-31T04:28:26.405Z,41.68
2022-10-31T04:30:53.873Z,41.94
2022-10-31T04:33:21.436Z,41.88
2022-10-31T04:35:48.515Z,42.13
2022-10-31T04:38:15.835Z,41.50
2022-10-31T04:40:43.935Z,41.86
2022-10-31T04:43:30.643Z,42.05
2022-10-31T04:46:00.041Z,42.05
2022-10-31T04:48:27.003Z,41.95
2022-10-31T04:50:54.034Z,42.58
2022-10-31T04:53:21.214Z,42.13
2022-10-31T04:56:07.478Z,42.77
2022-10-31T04:58:40.778Z,42.04
2022-10-31T05:01:09.561Z,42.15
2022-10-31T05:03:36.482Z,42.31
2022-10-31T05:06:03.248Z,42.87
2022-10-31T05:08:29.939Z,41.85
2022-10-31T05:11:04.329Z,45.31
2022-10-31T05:13:32.582Z,43.37
2022-10-31T05:16:19.566Z,42.95
2022-10-31T05:19:05.271Z,43.88
2022-10-31T05:21:52.056Z,43.04
2022-10-31T05:24:22.759Z,42.81
2022-10-31T05:26:50.185Z,43.14
2022-10-31T05:29:17.825Z,42.82
2022-10-31T05:31:44.709Z,42.88
2022-10-31T05:34:25.122Z,43.00
2022-10-31T05:37:18.126Z,42.91
2022-10-31T05:39:45.749Z,42.77
2022-10-31T05:42:15.562Z,42.43
2022-10-31T05:44:42.419Z,42.94
2022-10-31T05:47:21.229Z,43.39
2022-10-31T05:50:07.259Z,42.93
2022-10-31T05:52:49.095Z,43.28
2022-10-31T05:55:25.893Z,42.86
2022-10-31T05:58:11.450Z,42.50
2022-10-31T06:00:40.787Z,42.88
2022-10-31T06:03:10.662Z,42.63
2022-10-31T06:05:57.921Z,43.88
2022-10-31T06:08:31.458Z,43.26
2022-10-31T06:11:02.489Z,43.58
2022-10-31T06:13:49.654Z,43.69
2022-10-31T06:16:22.049Z,45.48
2022-10-31T06:18:50.315Z,46.32
2022-10-31T06:21:19.242Z,45.49
2022-10-31T06:23:48.626Z,44.51
2022-10-31T06:26:35.488Z,44.07
2022-10-31T06:29:04.293Z,43.76
2022-10-31T06:32:00.137Z,43.78
2022-10-31T06:34:28.447Z,42.48
2022-10-31T06:36:55.215Z,43.16
2022-10-31T06:39:25.145Z,42.14
2022-10-31T06:41:53.206Z,41.56
2022-10-31T06:44:21.818Z,41.57
2022-10-31T06:46:54.555Z,42.41
2022-10-31T06:49:40.245Z,42.20
2022-10-31T06:52:15.933Z,41.63
2022-10-31T06:54:42.769Z,42.60
2022-10-31T06:57:09.744Z,42.57
2022-10-31T06:59:38.320Z,41.06
2022-10-31T07:02:05.250Z,42.13
2022-10-31T07:04:33.758Z,42.20
2022-10-31T07:07:02.864Z,42.77
2022-10-31T07:09:30.441Z,41.46
2022-10-31T07:12:01.377Z,41.88
2022-10-31T07:14:30.949Z,41.90
2022-10-31T07:16:57.634Z,42.31
2022-10-31T07:19:32.167Z,41.59
2022-10-31T07:21:58.969Z,41.96
2022-10-31T07:24:28.543Z,40.60
2022-10-31T07:27:10.373Z,41.24
2022-10-31T07:29:37.662Z,39.99
2022-10-31T07:32:04.975Z,40.33
2022-10-31T07:34:34.225Z,40.02
2022-10-31T07:37:15.941Z,40.17
2022-10-31T07:39:42.884Z,40.48
2022-10-31T07:42:10.789Z,39.76
2022-10-31T07:44:42.686Z,41.83
2022-10-31T07:47:28.106Z,41.37
2022-10-31T07:50:31.034Z,40.94
2022-10-31T07:53:09.638Z,40.13
2022-10-31T07:56:08.566Z,40.99
2022-10-31T07:58:35.895Z,40.01
2022-10-31T08:01:02.793Z,39.19
2022-10-31T08:03:39.513Z,38.68
2022-10-31T08:06:24.690Z,38.19
2022-10-31T08:09:11.860Z,39.12
2022-10-31T08:11:39.757Z,38.61
2022-10-31T08:14:07.447Z,37.21
2022-10-31T08:16:35.189Z,38.08
2022-10-31T08:19:04.622Z,37.54
2022-10-31T08:21:37.216Z,37.06
2022-10-31T08:24:04.230Z,35.74
2022-10-31T08:26:51.447Z,36.25
2022-10-31T08:29:18.378Z,36.53
2022-10-31T08:31:46.939Z,36.18
2022-10-31T08:34:32.744Z,35.50
2022-10-31T08:37:20.943Z,34.71
2022-10-31T08:39:52.936Z,35.75
2022-10-31T08:42:21.178Z,34.91
2022-10-31T08:44:47.958Z,34.76
2022-10-31T08:47:14.888Z,34.10
2022-10-31T08:49:41.724Z,33.66
2022-10-31T08:52:12.024Z,33.73
2022-10-31T08:54:41.968Z,33.44
2022-10-31T08:57:37.984Z,34.53
2022-10-31T09:00:06.388Z,33.88
2022-10-31T09:03:00.927Z,33.04
2022-10-31T09:05:33.147Z,33.12
2022-10-31T09:08:01.941Z,33.25
2022-10-31T09:10:31.618Z,32.72
2022-10-31T09:12:59.753Z,32.38
2022-10-31T09:15:46.737Z,32.53
2022-10-31T09:18:22.440Z,32.35
2022-10-31T09:20:59.896Z,33.30
2022-10-31T09:23:29.227Z,32.01
2022-10-31T09:25:56.358Z,31.96
2022-10-31T09:28:38.286Z,30.62
2022-10-31T09:31:15.750Z,30.72
2022-10-31T09:34:05.788Z,31.45
2022-10-31T09:36:39.459Z,30.70
2022-10-31T09:39:09.632Z,30.50
2022-10-31T09:41:57.284Z,31.04
2022-10-31T09:44:39.649Z,29.91
2022-10-31T09:47:31.115Z,30.18
2022-10-31T09:50:30.178Z,30.31
2022-10-31T09:53:04.761Z,30.28
2022-10-31T09:55:40.420Z,30.07
2022-10-31T09:58:14.832Z,30.22
2022-10-31T10:00:43.711Z,30.74
2022-10-31T10:03:36.770Z,30.47
2022-10-31T10:06:25.779Z,30.62
2022-10-31T10:09:11.203Z,29.78
2022-10-31T10:12:21.470Z,29.97
2022-10-31T10:14:54.085Z,30.61
2022-10-31T10:17:28.397Z,29.53
2022-10-31T10:20:20.578Z,30.54
2022-10-31T10:22:58.466Z,28.88
2022-10-31T10:25:40.538Z,28.64
2022-10-31T10:28:21.242Z,28.24
2022-10-31T10:30:50.193Z,29.87
2022-10-31T10:33:24.887Z,28.79
2022-10-31T10:36:02.419Z,29.67
2022-10-31T10:38:47.973Z,28.46
2022-10-31T10:41:20.760Z,28.28
2022-10-31T10:43:50.898Z,29.40
2022-10-31T10:46:57.880Z,29.82
2022-10-31T10:49:30.627Z,28.79
2022-10-31T10:52:19.349Z,27.69
2022-10-31T10:54:54.443Z,28.95
2022-10-31T10:57:42.551Z,28.07
2022-10-31T11:00:29.068Z,28.12
2022-10-31T11:02:56.878Z,27.41
2022-10-31T11:05:35.713Z,27.37
2022-10-31T11:08:04.135Z,27.48
2022-10-31T11:10:31.134Z,27.45
2022-10-31T11:13:14.635Z,27.25
2022-10-31T11:15:57.092Z,28.43
2022-10-31T11:18:27.116Z,27.57
2022-10-31T11:20:57.119Z,26.96
2022-10-31T11:23:26.032Z,26.45
2022-10-31T11:26:06.857Z,27.80
2022-10-31T11:28:37.725Z,26.95
2022-10-31T11:31:12.578Z,26.39
2022-10-31T11:33:45.163Z,26.27
2022-10-31T11:36:20.107Z,26.52
2022-10-31T11:38:47.100Z,25.82
2022-10-31T11:41:34.988Z,26.10
2022-10-31T11:44:05.177Z,25.43
2022-10-31T11:46:40.799Z,25.52
2022-10-31T11:49:18.526Z,25.09
2022-10-31T11:51:50.332Z,24.32
2022-10-31T11:54:31.679Z,23.79
2022-10-31T11:56:58.636Z,23.57
2022-10-31T11:59:32.775Z,23.44
2022-10-31T12:02:01.880Z,23.10
2022-10-31T12:04:41.380Z,22.90
2022-10-31T12:07:08.776Z,22.67
2022-10-31T12:09:37.773Z,21.65
2022-10-31T12:12:13.601Z,21.76
2022-10-31T12:15:24.782Z,21.43
2022-10-31T12:18:09.881Z,20.84
2022-10-31T12:21:13.874Z,21.74
2022-10-31T12:24:05.309Z,20.86
2022-10-31T12:27:04.226Z,21.32
2022-10-31T12:29:56.881Z,19.81
2022-10-31T12:32:53.166Z,19.25
2022-10-31T12:35:32.355Z,18.86
2022-10-31T12:38:17.043Z,18.87
2022-10-31T12:41:11.134Z,18.23
2022-10-31T12:43:58.690Z,18.73
2022-10-31T12:46:54.743Z,18.29
2022-10-31T12:49:28.994Z,18.05
2022-10-31T12:52:29.910Z,18.63
2022-10-31T12:55:15.338Z,19.06
2022-10-31T12:58:22.658Z,18.84
2022-10-31T13:01:00.017Z,19.29
2022-10-31T13:03:36.704Z,17.90
2022-10-31T13:06:09.019Z,17.65
2022-10-31T13:09:09.594Z,17.61
2022-10-31T13:11:45.688Z,17.49
2022-10-31T13:14:27.742Z,18.07
2022-10-31T13:16:56.503Z,18.50
2022-10-31T13:19:28.702Z,18.27
2022-10-31T13:22:05.541Z,18.26
2022-10-31T13:24:40.535Z,18.14
2022-10-31T13:27:54.817Z,17.89
2022-10-31T13:30:24.449Z,18.39
2022-10-31T13:32:55.562Z,18.49
2022-10-31T13:35:37.673Z,18.54
2022-10-31T13:38:22.928Z,19.56
2022-10-31T13:41:00.217Z,19.65
2022-10-31T13:43:34.386Z,19.82
2022-10-31T13:46:01.278Z,18.93
2022-10-31T13:48:43.186Z,20.05
2022-10-31T13:51:11.871Z,20.17
2022-10-31T13:53:46.487Z,20.18
2022-10-31T13:56:20.760Z,20.69
2022-10-31T13:59:14.128Z,21.55
2022-10-31T14:01:49.724Z,21.61
2022-10-31T14:04:25.910Z,22.83
2022-10-31T14:07:13.661Z,23.11
2022-10-31T14:09:55.715Z,22.85
2022-10-31T14:12:28.325Z,23.31
2022-10-31T14:15:05.626Z,23.86
2022-10-31T14:17:41.970Z,24.15
2022-10-31T14:20:11.802Z,24.36
2022-10-31T14:22:42.921Z,24.42
2022-10-31T14:25:33.461Z,24.40
2022-10-31T14:28:03.814Z,24.48
2022-10-31T14:30:31.947Z,24.62
2022-10-31T14:33:02.296Z,24.85
2022-10-31T14:35:56.138Z,24.87
2022-10-31T14:38:34.627Z,25.29
2022-10-31T14:41:23.256Z,25.26
2022-10-31T14:44:16.322Z,24.84
2022-10-31T14:46:51.912Z,24.75
2022-10-31T14:49:42.946Z,25.04
2022-10-31T14:52:14.420Z,25.22
2022-10-31T14:54:46.913Z,25.24
2022-10-31T14:57:23.070Z,25.48
2022-10-31T14:59:57.881Z,25.65
2022-10-31T15:02:35.727Z,25.96
2022-10-31T15:05:11.196Z,26.40
2022-10-31T15:07:49.966Z,26.27
2022-10-31T15:10:33.046Z,26.23
2022-10-31T15:13:29.125Z,26.27
2022-10-31T15:15:56.919Z,26.61
2022-10-31T15:18:27.822Z,26.32
2022-10-31T15:20:56.737Z,26.80
2022-10-31T15:23:29.288Z,26.90
2022-10-31T15:26:01.633Z,27.09
2022-10-31T15:28:28.816Z,27.54
2022-10-31T15:31:01.350Z,27.43
2022-10-31T15:33:37.916Z,27.01
2022-10-31T15:36:05.930Z,27.20
2022-10-31T15:38:33.801Z,27.13
2022-10-31T15:41:20.431Z,26.86
2022-10-31T15:43:48.310Z,26.86
2022-10-31T15:46:15.258Z,26.79
2022-10-31T15:48:46.928Z,26.95
2022-10-31T15:51:13.744Z,26.92
2022-10-31T15:53:45.704Z,27.59
2022-10-31T15:56:20.295Z,27.58
2022-10-31T15:58:52.790Z,27.32
2022-10-31T16:01:28.891Z,27.31
2022-10-31T16:03:59.237Z,27.64
2022-10-31T16:06:26.578Z,27.46
2022-10-31T16:08:53.800Z,27.41
2022-10-31T16:11:40.071Z,27.80
2022-10-31T16:14:23.211Z,30.09
2022-10-31T16:16:59.057Z,30.29
2022-10-31T16:19:38.858Z,29.90
2022-10-31T16:22:11.036Z,30.07
2022-10-31T16:24:59.710Z,30.10
2022-10-31T16:27:32.216Z,30.50
2022-10-31T16:30:02.479Z,30.47
2022-10-31T16:32:37.780Z,31.00
2022-10-31T16:35:10.858Z,31.76
2022-10-31T16:37:41.835Z,32.34
2022-10-31T16:40:14.057Z,32.22
2022-10-31T16:42:41.853Z,32.11
2022-10-31T16:45:15.120Z,32.17
2022-10-31T16:47:41.835Z,31.99
2022-10-31T16:50:21.150Z,32.47
2022-10-31T16:55:37.835Z,32.10
2022-10-31T16:58:04.666Z,32.20
2022-10-31T17:00:31.775Z,32.52
2022-10-31T17:02:58.597Z,33.22
2022-10-31T17:05:30.572Z,32.57
2022-10-31T17:07:58.244Z,32.44
2022-10-31T17:10:27.125Z,32.19
2022-10-31T17:12:54.703Z,33.21
2022-10-31T17:15:27.655Z,32.58
2022-10-31T17:17:55.608Z,32.45
2022-10-31T17:20:30.667Z,32.43
2022-10-31T17:23:00.185Z,33.23
2022-10-31T17:25:30.364Z,33.36
2022-10-31T17:27:57.101Z,32.96
2022-10-31T17:30:24.208Z,33.11
2022-10-31T17:32:52.282Z,33.39
2022-10-31T17:35:21.220Z,32.88
2022-10-31T17:37:48.820Z,33.27
2022-10-31T17:40:19.158Z,34.81
2022-10-31T17:42:54.901Z,34.27
2022-10-31T17:45:24.846Z,34.24
2022-10-31T17:47:53.199Z,34.87
2022-10-31T17:50:23.328Z,35.92
2022-10-31T17:52:50.342Z,36.37
2022-10-31T17:55:17.869Z,36.87
2022-10-31T17:57:44.924Z,36.25
2022-10-31T18:00:17.922Z,35.25
2022-10-31T18:02:45.310Z,35.11
2022-10-31T18:05:12.415Z,34.88
2022-10-31T18:07:39.278Z,35.12
2022-10-31T18:10:09.532Z,35.47
2022-10-31T18:12:37.818Z,35.12
2022-10-31T18:15:05.296Z,35.28
2022-10-31T18:17:32.306Z,35.60
2022-10-31T18:19:59.245Z,35.70
2022-10-31T18:22:25.992Z,35.67
2022-10-31T18:24:52.855Z,35.16
2022-10-31T18:27:19.757Z,36.03
2022-10-31T18:29:46.570Z,35.66
2022-10-31T18:32:13.350Z,35.50
2022-10-31T18:34:40.242Z,35.14
2022-10-31T18:37:07.059Z,35.53
2022-10-31T18:39:33.855Z,35.34
2022-10-31T18:42:00.721Z,35.16
2022-10-31T18:44:27.954Z,35.52
2022-10-31T18:46:54.980Z,35.46
2022-10-31T18:49:25.950Z,35.34
2022-10-31T18:51:52.983Z,35.60
2022-10-31T18:54:19.949Z,35.71
2022-10-31T18:56:46.887Z,35.83
2022-10-31T18:59:13.819Z,35.75
2022-10-31T19:01:40.904Z,36.32
2022-10-31T19:04:07.931Z,36.55
2022-10-31T19:06:34.804Z,36.65
2022-10-31T19:09:05.322Z,36.59
2022-10-31T19:11:33.790Z,36.36
2022-10-31T19:14:01.293Z,36.99
2022-10-31T19:16:28.763Z,36.74
2022-10-31T19:18:56.977Z,37.57
2022-10-31T19:21:24.243Z,37.26
2022-10-31T19:23:54.092Z,37.99
2022-10-31T19:26:20.918Z,37.92
2022-10-31T19:28:47.664Z,38.24
2022-10-31T19:31:15.574Z,37.69
2022-10-31T19:33:43.274Z,37.13
2022-10-31T19:36:13.590Z,37.07
2022-10-31T19:38:43.064Z,37.29
2022-10-31T19:41:14.594Z,36.77
2022-10-31T19:43:41.912Z,37.07
2022-10-31T19:46:17.535Z,37.01
2022-10-31T19:48:49.804Z,37.08
2022-10-31T19:51:20.028Z,37.34
2022-10-31T19:53:49.396Z,37.22
2022-10-31T19:56:19.662Z,38.77
2022-10-31T19:58:47.141Z,38.23
2022-10-31T20:01:20.300Z,38.42
2022-10-31T20:03:48.695Z,38.53
2022-10-31T20:06:24.422Z,38.94
2022-10-31T20:08:52.964Z,40.69
2022-10-31T20:11:21.673Z,41.56
2022-10-31T20:13:48.611Z,40.10
2022-10-31T20:16:16.750Z,39.33
2022-10-31T20:18:44.378Z,39.33
2022-10-31T20:21:14.492Z,38.95
2022-10-31T20:23:41.739Z,38.39
2022-10-31T20:26:12.720Z,38.82
2022-10-31T20:28:43.314Z,38.61
2022-10-31T20:31:17.170Z,38.49
2022-10-31T20:33:44.197Z,38.55
2022-10-31T20:36:11.675Z,38.25
2022-10-31T20:38:40.117Z,38.18
2022-10-31T20:41:10.000Z,38.43
2022-10-31T20:43:37.551Z,38.83
2022-10-31T20:46:07.077Z,39.03
2022-10-31T20:48:34.351Z,39.41
2022-10-31T20:51:04.578Z,39.21
2022-10-31T20:53:32.425Z,39.68
2022-10-31T20:56:14.389Z,39.58
2022-10-31T20:58:42.846Z,39.52
2022-10-31T21:01:15.574Z,40.46
2022-10-31T21:03:43.324Z,40.93
2022-10-31T21:06:11.225Z,40.61
2022-10-31T21:08:38.875Z,40.43
2022-10-31T21:11:08.666Z,41.10
2022-10-31T21:13:40.746Z,41.76
2022-10-31T21:16:11.231Z,43.24
2022-10-31T21:18:40.061Z,42.52
2022-10-31T21:21:27.610Z,42.42
2022-10-31T21:24:04.751Z,42.86
2022-10-31T21:26:35.460Z,44.22
2022-10-31T21:29:03.021Z,42.44
2022-10-31T21:31:29.808Z,42.03
2022-10-31T21:33:57.834Z,42.29
2022-10-31T21:36:26.238Z,42.92
2022-10-31T21:38:54.713Z,42.24
2022-10-31T21:41:22.371Z,41.95
2022-10-31T21:43:51.278Z,41.48
2022-10-31T21:46:20.537Z,41.95
2022-10-31T21:48:49.419Z,42.50
2022-10-31T21:51:22.083Z,43.16
2022-10-31T21:54:08.268Z,42.15
2022-10-31T21:56:35.766Z,42.04
2022-10-31T21:59:02.562Z,41.94
2022-10-31T22:01:30.141Z,41.12
2022-10-31T22:03:58.051Z,41.53
2022-10-31T22:06:26.684Z,41.27
2022-10-31T22:08:58.878Z,41.72
2022-10-31T22:11:25.858Z,41.84
2022-10-31T22:13:52.587Z,41.54
2022-10-31T22:16:21.503Z,41.58
2022-10-31T22:18:52.781Z,40.68
2022-10-31T22:21:22.866Z,40.59
2022-10-31T22:23:55.141Z,40.79
2022-10-31T22:26:22.312Z,41.02
2022-10-31T22:29:10.483Z,40.86
2022-10-31T22:31:42.332Z,40.99
2022-10-31T22:34:09.818Z,40.62
2022-10-31T22:36:37.805Z,40.74
2022-10-31T22:39:05.787Z,40.73
2022-10-31T22:41:35.411Z,41.11
2022-10-31T22:44:03.309Z,40.95
2022-10-31T22:46:32.355Z,40.84
2022-10-31T22:49:02.478Z,41.13
2022-10-31T22:51:32.233Z,41.27
2022-10-31T22:53:59.456Z,41.45
2022-10-31T22:56:31.712Z,41.50
2022-10-31T22:58:59.438Z,42.42
2022-10-31T23:01:29.289Z,41.79
2022-10-31T23:03:56.265Z,41.69
2022-10-31T23:06:25.719Z,42.34
2022-10-31T23:08:53.330Z,42.10
2022-10-31T23:11:23.359Z,41.88
2022-10-31T23:14:10.822Z,41.88
2022-10-31T23:16:46.837Z,44.88
2022-10-31T23:19:19.699Z,44.49
2022-10-31T23:21:55.320Z,43.95
2022-10-31T23:24:38.662Z,43.18
2022-10-31T23:27:20.252Z,43.18
2022-10-31T23:29:56.615Z,42.87
2022-10-31T23:32:28.767Z,42.93
2022-10-31T23:34:58.133Z,42.48
2022-10-31T23:37:27.663Z,43.02
2022-10-31T23:39:55.328Z,43.23
2022-10-31T23:42:23.243Z,43.09
2022-10-31T23:44:50.054Z,43.80
2022-10-31T23:47:17.080Z,43.35
2022-10-31T23:49:43.925Z,43.37
2022-10-31T23:52:11.403Z,43.35
2022-10-31T23:54:38.920Z,43.08
2022-10-31T23:57:05.990Z,42.97
2022-10-31T23:59:33.202Z,43.04
